sensor_id;sensor_type;location;lat;lon;timestamp;temperature;humidity
60723;DHT22;46574;52.818;6.516;2023-03-02T00:01:53;3.50;99.90
60723;DHT22;46574;52.818;6.516;2023-03-02T00:06:49;3.40;99.90
60723;DHT22;46574;52.818;6.516;2023-03-02T00:09:16;3.40;99.90
60723;DHT22;46574;52.818;6.516;2023-03-02T00:11:41;3.50;99.90
60723;DHT22;46574;52.818;6.516;2023-03-02T00:14:07;3.50;99.90
60723;DHT22;46574;52.818;6.516;2023-03-02T00:16:33;3.50;99.90
60723;DHT22;46574;52.818;6.516;2023-03-02T00:18:59;3.50;99.90
60723;DHT22;46574;52.818;6.516;2023-03-02T00:21:24;3.50;99.90
60723;DHT22;46574;52.818;6.516;2023-03-02T00:23:51;3.50;99.90
60723;DHT22;46574;52.818;6.516;2023-03-02T00:26:18;3.60;99.90
60723;DHT22;46574;52.818;6.516;2023-03-02T00:28:43;3.60;99.90
60723;DHT22;46574;52.818;6.516;2023-03-02T00:31:09;3.60;99.90
60723;DHT22;46574;52.818;6.516;2023-03-02T00:33:35;3.60;99.90
60723;DHT22;46574;52.818;6.516;2023-03-02T00:36:01;3.60;99.90
60723;DHT22;46574;52.818;6.516;2023-03-02T00:38:27;3.60;99.90
60723;DHT22;46574;52.818;6.516;2023-03-02T00:40:53;3.60;99.90
60723;DHT22;46574;52.818;6.516;2023-03-02T00:43:20;3.60;99.90
60723;DHT22;46574;52.818;6.516;2023-03-02T00:45:52;3.50;99.90
60723;DHT22;46574;52.818;6.516;2023-03-02T00:48:17;3.50;99.90
60723;DHT22;46574;52.818;6.516;2023-03-02T00:50:43;3.60;99.90
60723;DHT22;46574;52.818;6.516;2023-03-02T00:53:09;3.60;99.90
60723;DHT22;46574;52.818;6.516;2023-03-02T00:55:36;3.50;99.90
60723;DHT22;46574;52.818;6.516;2023-03-02T00:58:03;3.50;99.90
60723;DHT22;46574;52.818;6.516;2023-03-02T01:00:30;3.50;99.90
60723;DHT22;46574;52.818;6.516;2023-03-02T01:02:56;3.50;99.90
60723;DHT22;46574;52.818;6.516;2023-03-02T01:05:22;3.50;99.90
60723;DHT22;46574;52.818;6.516;2023-03-02T01:07:48;3.50;99.90
60723;DHT22;46574;52.818;6.516;2023-03-02T01:10:14;3.50;99.90
60723;DHT22;46574;52.818;6.516;2023-03-02T01:12:40;3.50;99.90
60723;DHT22;46574;52.818;6.516;2023-03-02T01:15:07;3.50;99.90
60723;DHT22;46574;52.818;6.516;2023-03-02T01:17:33;3.50;99.90
60723;DHT22;46574;52.818;6.516;2023-03-02T01:19:58;3.50;99.90
60723;DHT22;46574;52.818;6.516;2023-03-02T01:22:24;3.50;99.90
60723;DHT22;46574;52.818;6.516;2023-03-02T01:24:51;3.50;99.90
60723;DHT22;46574;52.818;6.516;2023-03-02T01:27:18;3.50;99.90
60723;DHT22;46574;52.818;6.516;2023-03-02T01:29:43;3.40;99.90
60723;DHT22;46574;52.818;6.516;2023-03-02T01:32:09;3.50;99.90
60723;DHT22;46574;52.818;6.516;2023-03-02T01:34:35;3.50;99.90
60723;DHT22;46574;52.818;6.516;2023-03-02T01:37:00;3.40;99.90
60723;DHT22;46574;52.818;6.516;2023-03-02T01:39:26;3.40;99.90
60723;DHT22;46574;52.818;6.516;2023-03-02T01:41:52;3.50;99.90
60723;DHT22;46574;52.818;6.516;2023-03-02T01:44:43;3.40;99.90
60723;DHT22;46574;52.818;6.516;2023-03-02T01:47:23;3.40;99.90
60723;DHT22;46574;52.818;6.516;2023-03-02T01:49:56;3.40;99.90
60723;DHT22;46574;52.818;6.516;2023-03-02T01:52:24;3.40;99.90
60723;DHT22;46574;52.818;6.516;2023-03-02T01:54:52;3.40;99.90
60723;DHT22;46574;52.818;6.516;2023-03-02T01:57:22;3.40;99.90
60723;DHT22;46574;52.818;6.516;2023-03-02T01:59:54;3.40;99.90
60723;DHT22;46574;52.818;6.516;2023-03-02T02:02:22;3.40;99.90
60723;DHT22;46574;52.818;6.516;2023-03-02T02:04:48;3.40;99.90
60723;DHT22;46574;52.818;6.516;2023-03-02T02:07:15;3.30;99.90
60723;DHT22;46574;52.818;6.516;2023-03-02T02:09:47;3.40;99.90
60723;DHT22;46574;52.818;6.516;2023-03-02T02:12:21;3.40;99.90
60723;DHT22;46574;52.818;6.516;2023-03-02T02:14:47;3.40;99.90
60723;DHT22;46574;52.818;6.516;2023-03-02T02:17:15;3.30;99.90
60723;DHT22;46574;52.818;6.516;2023-03-02T02:19:56;3.30;99.90
60723;DHT22;46574;52.818;6.516;2023-03-02T02:26:16;3.30;99.90
60723;DHT22;46574;52.818;6.516;2023-03-02T02:31:34;3.30;99.90
60723;DHT22;46574;52.818;6.516;2023-03-02T02:34:09;3.30;99.90
60723;DHT22;46574;52.818;6.516;2023-03-02T02:36:40;3.30;99.90
60723;DHT22;46574;52.818;6.516;2023-03-02T02:39:09;3.20;99.90
60723;DHT22;46574;52.818;6.516;2023-03-02T02:41:40;3.20;99.90
60723;DHT22;46574;52.818;6.516;2023-03-02T02:44:11;3.10;99.90
60723;DHT22;46574;52.818;6.516;2023-03-02T02:46:39;3.10;99.90
60723;DHT22;46574;52.818;6.516;2023-03-02T02:49:05;3.10;99.90
60723;DHT22;46574;52.818;6.516;2023-03-02T02:51:34;3.10;99.90
60723;DHT22;46574;52.818;6.516;2023-03-02T02:54:02;3.10;99.90
60723;DHT22;46574;52.818;6.516;2023-03-02T02:56:33;3.10;99.90
60723;DHT22;46574;52.818;6.516;2023-03-02T02:59:16;3.10;99.90
60723;DHT22;46574;52.818;6.516;2023-03-02T03:01:44;3.10;99.90
60723;DHT22;46574;52.818;6.516;2023-03-02T03:04:12;3.10;99.90
60723;DHT22;46574;52.818;6.516;2023-03-02T03:06:50;3.10;99.90
60723;DHT22;46574;52.818;6.516;2023-03-02T03:09:16;3.10;99.90
60723;DHT22;46574;52.818;6.516;2023-03-02T03:11:45;3.10;99.90
60723;DHT22;46574;52.818;6.516;2023-03-02T03:14:33;3.10;99.90
60723;DHT22;46574;52.818;6.516;2023-03-02T03:16:59;3.00;99.90
60723;DHT22;46574;52.818;6.516;2023-03-02T03:19:28;2.90;99.90
60723;DHT22;46574;52.818;6.516;2023-03-02T03:21:59;2.80;99.90
60723;DHT22;46574;52.818;6.516;2023-03-02T03:24:27;2.80;99.90
60723;DHT22;46574;52.818;6.516;2023-03-02T03:26:55;2.80;99.90
60723;DHT22;46574;52.818;6.516;2023-03-02T03:29:22;2.80;99.90
60723;DHT22;46574;52.818;6.516;2023-03-02T03:31:50;2.80;99.90
60723;DHT22;46574;52.818;6.516;2023-03-02T03:34:15;2.80;99.90
60723;DHT22;46574;52.818;6.516;2023-03-02T03:36:41;2.80;99.90
60723;DHT22;46574;52.818;6.516;2023-03-02T03:39:11;2.70;99.90
60723;DHT22;46574;52.818;6.516;2023-03-02T03:41:36;2.80;99.90
60723;DHT22;46574;52.818;6.516;2023-03-02T03:44:03;2.80;99.90
60723;DHT22;46574;52.818;6.516;2023-03-02T03:46:29;2.90;99.90
60723;DHT22;46574;52.818;6.516;2023-03-02T03:48:55;2.90;99.90
60723;DHT22;46574;52.818;6.516;2023-03-02T03:51:22;2.80;99.90
60723;DHT22;46574;52.818;6.516;2023-03-02T03:53:47;2.90;99.90
60723;DHT22;46574;52.818;6.516;2023-03-02T03:56:29;2.90;99.90
60723;DHT22;46574;52.818;6.516;2023-03-02T03:58:55;2.80;99.90
60723;DHT22;46574;52.818;6.516;2023-03-02T04:01:37;2.80;99.90
60723;DHT22;46574;52.818;6.516;2023-03-02T04:04:06;2.80;99.90
60723;DHT22;46574;52.818;6.516;2023-03-02T04:06:32;2.80;99.90
60723;DHT22;46574;52.818;6.516;2023-03-02T04:08:58;2.80;99.90
60723;DHT22;46574;52.818;6.516;2023-03-02T04:11:30;2.90;99.90
60723;DHT22;46574;52.818;6.516;2023-03-02T04:13:56;2.80;99.90
60723;DHT22;46574;52.818;6.516;2023-03-02T04:16:22;2.80;99.90
60723;DHT22;46574;52.818;6.516;2023-03-02T04:18:47;2.80;99.90
60723;DHT22;46574;52.818;6.516;2023-03-02T04:21:13;2.80;99.90
60723;DHT22;46574;52.818;6.516;2023-03-02T04:23:38;2.80;99.90
60723;DHT22;46574;52.818;6.516;2023-03-02T04:26:04;2.80;99.90
60723;DHT22;46574;52.818;6.516;2023-03-02T04:28:31;2.80;99.90
60723;DHT22;46574;52.818;6.516;2023-03-02T04:30:56;2.80;99.90
60723;DHT22;46574;52.818;6.516;2023-03-02T04:33:22;2.80;99.90
60723;DHT22;46574;52.818;6.516;2023-03-02T04:35:48;2.70;99.90
60723;DHT22;46574;52.818;6.516;2023-03-02T04:38:14;2.70;99.90
60723;DHT22;46574;52.818;6.516;2023-03-02T04:40:39;2.70;99.90
60723;DHT22;46574;52.818;6.516;2023-03-02T04:43:05;2.70;99.90
60723;DHT22;46574;52.818;6.516;2023-03-02T04:45:31;2.70;99.90
60723;DHT22;46574;52.818;6.516;2023-03-02T04:47:57;2.70;99.90
60723;DHT22;46574;52.818;6.516;2023-03-02T04:50:23;2.70;99.90
60723;DHT22;46574;52.818;6.516;2023-03-02T04:52:48;2.70;99.90
60723;DHT22;46574;52.818;6.516;2023-03-02T04:55:24;2.70;99.90
60723;DHT22;46574;52.818;6.516;2023-03-02T04:57:50;2.70;99.90
60723;DHT22;46574;52.818;6.516;2023-03-02T05:00:17;2.70;99.90
60723;DHT22;46574;52.818;6.516;2023-03-02T05:02:47;2.60;99.90
60723;DHT22;46574;52.818;6.516;2023-03-02T05:05:17;2.60;99.90
60723;DHT22;46574;52.818;6.516;2023-03-02T05:07:43;2.60;99.90
60723;DHT22;46574;52.818;6.516;2023-03-02T05:10:13;2.60;99.90
60723;DHT22;46574;52.818;6.516;2023-03-02T05:12:39;2.60;99.90
60723;DHT22;46574;52.818;6.516;2023-03-02T05:15:30;2.60;99.90
60723;DHT22;46574;52.818;6.516;2023-03-02T05:17:56;2.50;99.90
60723;DHT22;46574;52.818;6.516;2023-03-02T05:20:22;2.60;99.90
60723;DHT22;46574;52.818;6.516;2023-03-02T05:22:53;2.50;99.90
60723;DHT22;46574;52.818;6.516;2023-03-02T05:25:20;2.50;99.90
60723;DHT22;46574;52.818;6.516;2023-03-02T05:27:46;2.50;99.90
60723;DHT22;46574;52.818;6.516;2023-03-02T05:30:12;2.50;99.90
60723;DHT22;46574;52.818;6.516;2023-03-02T05:32:38;2.40;99.90
60723;DHT22;46574;52.818;6.516;2023-03-02T05:35:04;2.40;99.90
60723;DHT22;46574;52.818;6.516;2023-03-02T05:37:30;2.40;99.90
60723;DHT22;46574;52.818;6.516;2023-03-02T05:39:55;2.50;99.90
60723;DHT22;46574;52.818;6.516;2023-03-02T05:42:21;2.40;99.90
60723;DHT22;46574;52.818;6.516;2023-03-02T05:44:47;2.40;99.90
60723;DHT22;46574;52.818;6.516;2023-03-02T05:47:12;2.40;99.90
60723;DHT22;46574;52.818;6.516;2023-03-02T05:49:38;2.50;99.90
60723;DHT22;46574;52.818;6.516;2023-03-02T05:52:04;2.40;99.90
60723;DHT22;46574;52.818;6.516;2023-03-02T05:54:29;2.50;99.90
60723;DHT22;46574;52.818;6.516;2023-03-02T05:56:55;2.50;99.90
60723;DHT22;46574;52.818;6.516;2023-03-02T05:59:21;2.40;99.90
60723;DHT22;46574;52.818;6.516;2023-03-02T06:01:46;2.40;99.90
60723;DHT22;46574;52.818;6.516;2023-03-02T06:04:12;2.30;99.90
60723;DHT22;46574;52.818;6.516;2023-03-02T06:06:38;2.20;99.90
60723;DHT22;46574;52.818;6.516;2023-03-02T06:09:04;2.20;99.90
60723;DHT22;46574;52.818;6.516;2023-03-02T06:11:29;2.20;99.90
60723;DHT22;46574;52.818;6.516;2023-03-02T06:13:55;2.20;99.90
60723;DHT22;46574;52.818;6.516;2023-03-02T06:16:21;2.20;99.90
60723;DHT22;46574;52.818;6.516;2023-03-02T06:18:46;2.20;99.90
60723;DHT22;46574;52.818;6.516;2023-03-02T06:21:12;2.20;99.90
60723;DHT22;46574;52.818;6.516;2023-03-02T06:23:37;2.30;99.90
60723;DHT22;46574;52.818;6.516;2023-03-02T06:26:08;2.30;99.90
60723;DHT22;46574;52.818;6.516;2023-03-02T06:28:35;2.30;99.90
60723;DHT22;46574;52.818;6.516;2023-03-02T06:31:01;2.20;99.90
60723;DHT22;46574;52.818;6.516;2023-03-02T06:33:26;2.20;99.90
60723;DHT22;46574;52.818;6.516;2023-03-02T06:35:52;2.20;99.90
60723;DHT22;46574;52.818;6.516;2023-03-02T06:38:18;2.20;99.90
60723;DHT22;46574;52.818;6.516;2023-03-02T06:40:43;2.20;99.90
60723;DHT22;46574;52.818;6.516;2023-03-02T06:43:09;2.20;99.90
60723;DHT22;46574;52.818;6.516;2023-03-02T06:45:35;2.20;99.90
60723;DHT22;46574;52.818;6.516;2023-03-02T06:48:02;2.20;99.90
60723;DHT22;46574;52.818;6.516;2023-03-02T06:50:28;2.20;99.90
60723;DHT22;46574;52.818;6.516;2023-03-02T06:52:54;2.30;99.90
60723;DHT22;46574;52.818;6.516;2023-03-02T06:55:20;2.30;99.90
60723;DHT22;46574;52.818;6.516;2023-03-02T06:57:45;2.30;99.90
60723;DHT22;46574;52.818;6.516;2023-03-02T07:00:12;2.30;99.90
60723;DHT22;46574;52.818;6.516;2023-03-02T07:02:44;2.30;99.90
60723;DHT22;46574;52.818;6.516;2023-03-02T07:05:10;2.30;99.90
60723;DHT22;46574;52.818;6.516;2023-03-02T07:07:36;2.30;99.90
60723;DHT22;46574;52.818;6.516;2023-03-02T07:10:03;2.30;99.90
60723;DHT22;46574;52.818;6.516;2023-03-02T07:12:29;2.30;99.90
60723;DHT22;46574;52.818;6.516;2023-03-02T07:14:55;2.40;99.90
60723;DHT22;46574;52.818;6.516;2023-03-02T07:17:20;2.30;99.90
60723;DHT22;46574;52.818;6.516;2023-03-02T07:19:46;2.40;99.90
60723;DHT22;46574;52.818;6.516;2023-03-02T07:22:12;2.40;99.90
60723;DHT22;46574;52.818;6.516;2023-03-02T07:24:37;2.40;99.90
60723;DHT22;46574;52.818;6.516;2023-03-02T07:27:03;2.40;99.90
60723;DHT22;46574;52.818;6.516;2023-03-02T07:29:29;2.40;99.90
60723;DHT22;46574;52.818;6.516;2023-03-02T07:31:54;2.40;99.90
60723;DHT22;46574;52.818;6.516;2023-03-02T07:34:24;2.40;99.90
60723;DHT22;46574;52.818;6.516;2023-03-02T07:36:50;2.40;99.90
60723;DHT22;46574;52.818;6.516;2023-03-02T07:39:16;2.50;99.90
60723;DHT22;46574;52.818;6.516;2023-03-02T07:41:42;2.50;99.90
60723;DHT22;46574;52.818;6.516;2023-03-02T07:44:08;2.50;99.90
60723;DHT22;46574;52.818;6.516;2023-03-02T07:46:34;2.60;99.90
60723;DHT22;46574;52.818;6.516;2023-03-02T07:49:00;2.60;99.90
60723;DHT22;46574;52.818;6.516;2023-03-02T07:51:25;2.70;99.90
60723;DHT22;46574;52.818;6.516;2023-03-02T07:53:51;2.50;99.90
60723;DHT22;46574;52.818;6.516;2023-03-02T07:56:17;2.50;99.90
60723;DHT22;46574;52.818;6.516;2023-03-02T07:58:46;2.50;99.90
60723;DHT22;46574;52.818;6.516;2023-03-02T08:01:11;2.60;99.90
60723;DHT22;46574;52.818;6.516;2023-03-02T08:03:37;2.60;99.90
60723;DHT22;46574;52.818;6.516;2023-03-02T08:06:09;2.50;99.90
60723;DHT22;46574;52.818;6.516;2023-03-02T08:08:35;2.60;99.90
60723;DHT22;46574;52.818;6.516;2023-03-02T08:11:09;2.70;99.90
60723;DHT22;46574;52.818;6.516;2023-03-02T08:13:35;2.70;99.90
60723;DHT22;46574;52.818;6.516;2023-03-02T08:16:03;2.70;99.90
60723;DHT22;46574;52.818;6.516;2023-03-02T08:18:29;2.80;99.90
60723;DHT22;46574;52.818;6.516;2023-03-02T08:20:55;2.80;99.90
60723;DHT22;46574;52.818;6.516;2023-03-02T08:23:22;2.80;99.90
60723;DHT22;46574;52.818;6.516;2023-03-02T08:25:48;2.90;99.90
60723;DHT22;46574;52.818;6.516;2023-03-02T08:28:13;2.90;99.90
60723;DHT22;46574;52.818;6.516;2023-03-02T08:30:39;3.00;99.90
60723;DHT22;46574;52.818;6.516;2023-03-02T08:33:05;3.00;99.90
60723;DHT22;46574;52.818;6.516;2023-03-02T08:35:31;3.00;99.90
60723;DHT22;46574;52.818;6.516;2023-03-02T08:37:57;3.00;99.90
60723;DHT22;46574;52.818;6.516;2023-03-02T08:40:24;3.00;99.90
60723;DHT22;46574;52.818;6.516;2023-03-02T08:42:50;3.00;99.90
60723;DHT22;46574;52.818;6.516;2023-03-02T08:45:22;3.10;99.90
60723;DHT22;46574;52.818;6.516;2023-03-02T08:47:48;3.10;99.90
60723;DHT22;46574;52.818;6.516;2023-03-02T08:50:14;3.10;99.90
60723;DHT22;46574;52.818;6.516;2023-03-02T08:52:40;3.00;99.90
60723;DHT22;46574;52.818;6.516;2023-03-02T08:55:06;3.00;99.90
60723;DHT22;46574;52.818;6.516;2023-03-02T08:57:32;3.00;99.90
60723;DHT22;46574;52.818;6.516;2023-03-02T08:59:59;3.00;99.90
60723;DHT22;46574;52.818;6.516;2023-03-02T09:02:24;3.10;99.90
60723;DHT22;46574;52.818;6.516;2023-03-02T09:04:50;3.10;99.90
60723;DHT22;46574;52.818;6.516;2023-03-02T09:07:16;3.00;99.90
60723;DHT22;46574;52.818;6.516;2023-03-02T09:09:42;3.00;99.90
60723;DHT22;46574;52.818;6.516;2023-03-02T09:12:08;3.10;99.90
60723;DHT22;46574;52.818;6.516;2023-03-02T09:14:33;3.20;99.90
60723;DHT22;46574;52.818;6.516;2023-03-02T09:16:59;3.20;99.90
60723;DHT22;46574;52.818;6.516;2023-03-02T09:19:25;3.30;99.90
60723;DHT22;46574;52.818;6.516;2023-03-02T09:21:50;3.40;99.90
60723;DHT22;46574;52.818;6.516;2023-03-02T09:24:16;3.40;99.90
60723;DHT22;46574;52.818;6.516;2023-03-02T09:26:42;3.40;99.90
60723;DHT22;46574;52.818;6.516;2023-03-02T09:29:08;3.50;99.90
60723;DHT22;46574;52.818;6.516;2023-03-02T09:31:34;3.60;99.90
60723;DHT22;46574;52.818;6.516;2023-03-02T09:34:00;3.60;99.90
60723;DHT22;46574;52.818;6.516;2023-03-02T09:36:26;3.70;99.90
60723;DHT22;46574;52.818;6.516;2023-03-02T09:38:52;3.80;99.90
60723;DHT22;46574;52.818;6.516;2023-03-02T09:46:38;3.80;99.90
60723;DHT22;46574;52.818;6.516;2023-03-02T09:54:44;3.90;99.90
60723;DHT22;46574;52.818;6.516;2023-03-02T09:57:36;3.80;99.90
60723;DHT22;46574;52.818;6.516;2023-03-02T10:00:28;3.70;99.90
60723;DHT22;46574;52.818;6.516;2023-03-02T10:03:04;3.80;99.90
60723;DHT22;46574;52.818;6.516;2023-03-02T10:05:41;3.80;99.90
60723;DHT22;46574;52.818;6.516;2023-03-02T10:08:44;3.80;99.90
60723;DHT22;46574;52.818;6.516;2023-03-02T10:11:17;3.90;99.90
60723;DHT22;46574;52.818;6.516;2023-03-02T10:14:02;4.00;99.90
60723;DHT22;46574;52.818;6.516;2023-03-02T10:16:36;3.90;99.90
60723;DHT22;46574;52.818;6.516;2023-03-02T10:19:25;4.00;99.90
60723;DHT22;46574;52.818;6.516;2023-03-02T10:22:03;4.10;99.90
60723;DHT22;46574;52.818;6.516;2023-03-02T10:25:07;4.10;99.90
60723;DHT22;46574;52.818;6.516;2023-03-02T10:27:50;4.10;99.90
60723;DHT22;46574;52.818;6.516;2023-03-02T10:30:25;4.10;99.90
60723;DHT22;46574;52.818;6.516;2023-03-02T10:32:54;4.10;99.90
60723;DHT22;46574;52.818;6.516;2023-03-02T10:35:23;4.00;99.90
60723;DHT22;46574;52.818;6.516;2023-03-02T10:38:08;4.00;99.90
60723;DHT22;46574;52.818;6.516;2023-03-02T10:40:47;4.10;99.90
60723;DHT22;46574;52.818;6.516;2023-03-02T10:43:34;4.20;99.90
60723;DHT22;46574;52.818;6.516;2023-03-02T10:46:06;4.20;99.90
60723;DHT22;46574;52.818;6.516;2023-03-02T10:48:49;4.40;99.90
60723;DHT22;46574;52.818;6.516;2023-03-02T10:51:29;4.60;99.90
60723;DHT22;46574;52.818;6.516;2023-03-02T10:54:12;4.70;99.90
60723;DHT22;46574;52.818;6.516;2023-03-02T10:56:42;4.70;99.90
60723;DHT22;46574;52.818;6.516;2023-03-02T11:02:22;4.60;99.90
60723;DHT22;46574;52.818;6.516;2023-03-02T11:04:57;4.60;99.90
60723;DHT22;46574;52.818;6.516;2023-03-02T11:07:27;4.60;99.90
60723;DHT22;46574;52.818;6.516;2023-03-02T11:10:18;4.50;99.90
60723;DHT22;46574;52.818;6.516;2023-03-02T11:12:46;4.60;99.90
60723;DHT22;46574;52.818;6.516;2023-03-02T11:15:35;4.50;99.90
60723;DHT22;46574;52.818;6.516;2023-03-02T11:20:35;4.90;99.90
60723;DHT22;46574;52.818;6.516;2023-03-02T11:23:20;4.90;99.90
60723;DHT22;46574;52.818;6.516;2023-03-02T11:25:55;5.10;99.90
60723;DHT22;46574;52.818;6.516;2023-03-02T11:28:35;5.10;99.90
60723;DHT22;46574;52.818;6.516;2023-03-02T11:31:07;5.30;99.90
60723;DHT22;46574;52.818;6.516;2023-03-02T11:36:42;5.70;99.90
60723;DHT22;46574;52.818;6.516;2023-03-02T11:39:16;5.90;99.90
60723;DHT22;46574;52.818;6.516;2023-03-02T11:41:43;6.10;99.90
60723;DHT22;46574;52.818;6.516;2023-03-02T11:44:20;6.20;99.90
60723;DHT22;46574;52.818;6.516;2023-03-02T11:46:51;6.40;99.90
60723;DHT22;46574;52.818;6.516;2023-03-02T11:49:22;6.50;99.90
60723;DHT22;46574;52.818;6.516;2023-03-02T11:51:57;6.70;99.90
60723;DHT22;46574;52.818;6.516;2023-03-02T11:54:35;6.80;99.90
60723;DHT22;46574;52.818;6.516;2023-03-02T11:57:03;6.90;99.90
60723;DHT22;46574;52.818;6.516;2023-03-02T11:59:29;6.90;99.90
60723;DHT22;46574;52.818;6.516;2023-03-02T12:01:56;6.90;99.90
60723;DHT22;46574;52.818;6.516;2023-03-02T12:04:37;6.80;99.90
60723;DHT22;46574;52.818;6.516;2023-03-02T12:07:22;6.70;99.90
60723;DHT22;46574;52.818;6.516;2023-03-02T12:10:19;6.70;99.90
60723;DHT22;46574;52.818;6.516;2023-03-02T12:13:11;6.80;99.90
60723;DHT22;46574;52.818;6.516;2023-03-02T12:15:40;6.70;99.90
60723;DHT22;46574;52.818;6.516;2023-03-02T12:21:09;6.70;99.90
60723;DHT22;46574;52.818;6.516;2023-03-02T12:26:34;6.70;99.90
60723;DHT22;46574;52.818;6.516;2023-03-02T12:34:33;7.10;99.90
60723;DHT22;46574;52.818;6.516;2023-03-02T12:37:20;7.20;99.90
60723;DHT22;46574;52.818;6.516;2023-03-02T12:43:13;7.40;99.90
60723;DHT22;46574;52.818;6.516;2023-03-02T12:48:29;7.70;99.90
60723;DHT22;46574;52.818;6.516;2023-03-02T12:51:03;7.90;99.90
60723;DHT22;46574;52.818;6.516;2023-03-02T12:53:29;8.10;99.90
60723;DHT22;46574;52.818;6.516;2023-03-02T12:55:55;8.20;99.90
60723;DHT22;46574;52.818;6.516;2023-03-02T12:58:26;8.30;99.90
60723;DHT22;46574;52.818;6.516;2023-03-02T13:01:02;8.30;99.90
60723;DHT22;46574;52.818;6.516;2023-03-02T13:03:29;7.90;99.90
60723;DHT22;46574;52.818;6.516;2023-03-02T13:06:26;7.60;99.90
60723;DHT22;46574;52.818;6.516;2023-03-02T13:08:55;7.40;99.90
60723;DHT22;46574;52.818;6.516;2023-03-02T13:11:31;7.30;99.90
60723;DHT22;46574;52.818;6.516;2023-03-02T13:13:58;7.20;99.90
60723;DHT22;46574;52.818;6.516;2023-03-02T13:16:32;6.90;99.90
60723;DHT22;46574;52.818;6.516;2023-03-02T13:19:10;6.90;99.90
60723;DHT22;46574;52.818;6.516;2023-03-02T13:21:39;6.90;99.90
60723;DHT22;46574;52.818;6.516;2023-03-02T13:26:58;7.20;99.90
60723;DHT22;46574;52.818;6.516;2023-03-02T13:29:26;7.40;99.90
60723;DHT22;46574;52.818;6.516;2023-03-02T13:31:53;7.70;99.90
60723;DHT22;46574;52.818;6.516;2023-03-02T13:34:29;8.10;99.90
60723;DHT22;46574;52.818;6.516;2023-03-02T13:36:58;8.20;99.90
60723;DHT22;46574;52.818;6.516;2023-03-02T13:39:27;8.20;99.90
60723;DHT22;46574;52.818;6.516;2023-03-02T13:41:55;8.10;99.90
60723;DHT22;46574;52.818;6.516;2023-03-02T13:44:30;8.30;99.90
60723;DHT22;46574;52.818;6.516;2023-03-02T13:46:56;8.30;99.90
60723;DHT22;46574;52.818;6.516;2023-03-02T13:49:33;8.20;99.90
60723;DHT22;46574;52.818;6.516;2023-03-02T13:52:03;8.00;99.90
60723;DHT22;46574;52.818;6.516;2023-03-02T13:54:32;7.90;99.90
60723;DHT22;46574;52.818;6.516;2023-03-02T13:57:00;8.20;99.90
60723;DHT22;46574;52.818;6.516;2023-03-02T13:59:27;8.90;99.90
60723;DHT22;46574;52.818;6.516;2023-03-02T14:01:53;9.00;99.90
60723;DHT22;46574;52.818;6.516;2023-03-02T14:04:20;9.10;99.90
60723;DHT22;46574;52.818;6.516;2023-03-02T14:06:48;9.10;99.90
60723;DHT22;46574;52.818;6.516;2023-03-02T14:09:14;9.10;99.90
60723;DHT22;46574;52.818;6.516;2023-03-02T14:11:43;9.10;99.90
60723;DHT22;46574;52.818;6.516;2023-03-02T14:14:15;9.00;99.90
60723;DHT22;46574;52.818;6.516;2023-03-02T14:16:41;9.00;99.90
60723;DHT22;46574;52.818;6.516;2023-03-02T14:19:11;9.20;99.90
60723;DHT22;46574;52.818;6.516;2023-03-02T14:21:38;9.60;99.90
60723;DHT22;46574;52.818;6.516;2023-03-02T14:24:04;9.90;99.90
60723;DHT22;46574;52.818;6.516;2023-03-02T14:26:34;9.70;99.90
60723;DHT22;46574;52.818;6.516;2023-03-02T14:29:25;9.60;99.90
60723;DHT22;46574;52.818;6.516;2023-03-02T14:31:52;9.70;99.90
60723;DHT22;46574;52.818;6.516;2023-03-02T14:34:18;10.40;99.90
60723;DHT22;46574;52.818;6.516;2023-03-02T14:36:47;10.60;99.90
60723;DHT22;46574;52.818;6.516;2023-03-02T14:39:34;10.70;99.90
60723;DHT22;46574;52.818;6.516;2023-03-02T14:42:02;11.00;99.90
60723;DHT22;46574;52.818;6.516;2023-03-02T14:44:28;11.30;99.90
60723;DHT22;46574;52.818;6.516;2023-03-02T14:46:54;10.80;99.90
60723;DHT22;46574;52.818;6.516;2023-03-02T14:49:21;10.40;99.90
60723;DHT22;46574;52.818;6.516;2023-03-02T14:51:59;10.40;99.90
60723;DHT22;46574;52.818;6.516;2023-03-02T14:54:26;10.10;99.90
60723;DHT22;46574;52.818;6.516;2023-03-02T14:56:54;9.80;99.90
60723;DHT22;46574;52.818;6.516;2023-03-02T14:59:19;9.50;99.90
60723;DHT22;46574;52.818;6.516;2023-03-02T15:01:45;9.30;99.90
60723;DHT22;46574;52.818;6.516;2023-03-02T15:04:11;9.20;99.90
60723;DHT22;46574;52.818;6.516;2023-03-02T15:06:38;9.00;99.90
60723;DHT22;46574;52.818;6.516;2023-03-02T15:09:05;8.90;99.90
60723;DHT22;46574;52.818;6.516;2023-03-02T15:11:32;8.70;99.90
60723;DHT22;46574;52.818;6.516;2023-03-02T15:13:58;8.30;99.90
60723;DHT22;46574;52.818;6.516;2023-03-02T15:16:23;8.10;99.90
60723;DHT22;46574;52.818;6.516;2023-03-02T15:18:50;8.20;99.90
60723;DHT22;46574;52.818;6.516;2023-03-02T15:21:19;8.10;99.90
60723;DHT22;46574;52.818;6.516;2023-03-02T15:23:44;8.00;99.90
60723;DHT22;46574;52.818;6.516;2023-03-02T15:26:11;8.00;99.90
60723;DHT22;46574;52.818;6.516;2023-03-02T15:28:37;7.90;99.90
60723;DHT22;46574;52.818;6.516;2023-03-02T15:31:11;8.00;99.90
60723;DHT22;46574;52.818;6.516;2023-03-02T15:33:37;8.00;99.90
60723;DHT22;46574;52.818;6.516;2023-03-02T15:36:03;8.00;99.90
60723;DHT22;46574;52.818;6.516;2023-03-02T15:38:31;7.90;99.90
60723;DHT22;46574;52.818;6.516;2023-03-02T15:40:57;7.80;99.90
60723;DHT22;46574;52.818;6.516;2023-03-02T15:43:23;7.60;99.90
60723;DHT22;46574;52.818;6.516;2023-03-02T15:45:49;7.60;99.90
60723;DHT22;46574;52.818;6.516;2023-03-02T15:48:15;7.60;99.90
60723;DHT22;46574;52.818;6.516;2023-03-02T15:50:40;7.50;99.90
60723;DHT22;46574;52.818;6.516;2023-03-02T15:53:06;7.50;99.90
60723;DHT22;46574;52.818;6.516;2023-03-02T15:55:32;7.50;99.90
60723;DHT22;46574;52.818;6.516;2023-03-02T15:57:57;7.50;99.90
60723;DHT22;46574;52.818;6.516;2023-03-02T16:00:24;7.40;99.90
60723;DHT22;46574;52.818;6.516;2023-03-02T16:02:50;7.40;99.90
60723;DHT22;46574;52.818;6.516;2023-03-02T16:05:16;7.50;99.90
60723;DHT22;46574;52.818;6.516;2023-03-02T16:07:42;7.50;99.90
60723;DHT22;46574;52.818;6.516;2023-03-02T16:10:08;7.50;99.90
60723;DHT22;46574;52.818;6.516;2023-03-02T16:12:39;7.60;99.90
60723;DHT22;46574;52.818;6.516;2023-03-02T16:15:06;7.60;99.90
60723;DHT22;46574;52.818;6.516;2023-03-02T16:17:32;7.90;99.90
60723;DHT22;46574;52.818;6.516;2023-03-02T16:19:57;8.40;99.90
60723;DHT22;46574;52.818;6.516;2023-03-02T16:22:23;8.60;99.90
60723;DHT22;46574;52.818;6.516;2023-03-02T16:24:49;8.60;99.90
60723;DHT22;46574;52.818;6.516;2023-03-02T16:27:14;8.40;99.90
60723;DHT22;46574;52.818;6.516;2023-03-02T16:29:40;8.20;99.90
60723;DHT22;46574;52.818;6.516;2023-03-02T16:32:08;8.20;99.90
60723;DHT22;46574;52.818;6.516;2023-03-02T16:34:34;8.10;99.90
60723;DHT22;46574;52.818;6.516;2023-03-02T16:37:00;7.90;99.90
60723;DHT22;46574;52.818;6.516;2023-03-02T16:39:26;7.80;99.90
60723;DHT22;46574;52.818;6.516;2023-03-02T16:41:51;7.70;99.90
60723;DHT22;46574;52.818;6.516;2023-03-02T16:44:17;7.70;99.90
60723;DHT22;46574;52.818;6.516;2023-03-02T16:46:43;7.50;99.90